Time;durP1;ratioP1;P1;durP2;ratioP2;P2;SDS_P1;SDS_P2;PMS_P1;PMS_P2;Temp;Humidity;BMP_temperature;BMP_pressure;BME280_temperature;BME280_humidity;BME280_pressure;Samples;Min_cycle;Max_cycle;Signal;HPM_P1;HPM_P2
2023/01/18 00:01:33;;;;;;;;;;;;;;;11.14;76.00;98275.97;5091329;28;19945;-36
2023/01/18 00:03:58;;;;;;;;;;;;;;;11.00;75.89;98272.00;5091406;28;20306;-36
2023/01/18 00:06:26;;;;;;;;;;;;;;;10.96;76.03;98285.78;5091360;28;20358;-36
2023/01/18 00:08:52;;;;;;;;;;;;;;;10.78;77.69;98285.22;5091517;28;19928;-36
2023/01/18 00:11:18;;;;;;;;;;;;;;;10.96;76.63;98285.78;5091713;28;19912;-36
2023/01/18 00:13:43;;;;;;;;;;;;;;;10.87;77.43;98289.06;5091489;28;20364;-36
2023/01/18 00:16:15;;;;;;;;;;;;;;;10.86;77.55;98284.81;5091704;28;20430;-36
2023/01/18 00:18:41;;;;;;;;;;;;;;;10.72;78.89;98286.97;5091215;28;20176;-36
2023/01/18 00:21:08;;;;;;;;;;;;;;;10.95;77.22;98296.69;5091499;28;20014;-36
2023/01/18 00:23:33;;;;;;;;;;;;;;;10.42;79.62;98279.25;5091402;28;19912;-36
2023/01/18 00:26:08;;;;;;;;;;;;;;;10.44;79.48;98263.88;5091725;28;19912;-36
2023/01/18 00:28:34;;;;;;;;;;;;;;;10.53;78.61;98255.25;5091163;28;19912;-38
2023/01/18 00:30:59;;;;;;;;;;;;;;;10.59;78.57;98256.16;5091597;28;19912;-36
2023/01/18 00:33:24;;;;;;;;;;;;;;;10.80;77.82;98278.59;5091332;28;20330;-36
2023/01/18 00:35:55;;;;;;;;;;;;;;;10.88;76.79;98296.81;5091120;28;19918;-37
2023/01/18 00:38:21;;;;;;;;;;;;;;;10.93;77.30;98301.44;5091535;28;19919;-37
2023/01/18 00:40:46;;;;;;;;;;;;;;;11.04;76.20;98300.56;5091390;28;19920;-37
2023/01/18 00:45:55;;;;;;;;;;;;;;;11.09;75.63;98291.84;5091153;28;19942;-37
2023/01/18 00:48:20;;;;;;;;;;;;;;;11.37;74.44;98301.59;5091071;28;19920;-36
2023/01/18 00:50:45;;;;;;;;;;;;;;;11.70;72.33;98303.41;5091059;28;20394;-37
2023/01/18 00:53:11;;;;;;;;;;;;;;;11.95;71.77;98312.81;5090951;28;19973;-36
2023/01/18 00:55:36;;;;;;;;;;;;;;;11.96;71.18;98326.97;5094689;28;20002;-37
2023/01/18 00:58:01;;;;;;;;;;;;;;;11.58;72.81;98325.88;5094978;28;19919;-37
2023/01/18 01:00:27;;;;;;;;;;;;;;;11.40;74.15;98310.94;5095106;28;19970;-37
2023/01/18 01:02:52;;;;;;;;;;;;;;;11.31;74.59;98310.56;5095439;28;19912;-36
2023/01/18 01:08:03;;;;;;;;;;;;;;;11.37;75.23;98290.94;5095055;28;20031;-36
2023/01/18 01:10:28;;;;;;;;;;;;;;;11.33;74.59;98287.16;5094966;28;20355;-36
2023/01/18 01:26:33;;;;;;;;;;;;;;;11.47;74.24;98285.75;5094484;28;19924;-37
2023/01/18 01:28:59;;;;;;;;;;;;;;;11.37;73.96;98277.63;5094376;28;20304;-37
2023/01/18 01:31:24;;;;;;;;;;;;;;;11.31;74.90;98281.28;5094594;28;20003;-37
2023/01/18 01:33:50;;;;;;;;;;;;;;;11.34;74.78;98286.09;5094385;28;20433;-37
2023/01/18 01:36:16;;;;;;;;;;;;;;;11.51;73.77;98283.41;5094289;28;19954;-37
2023/01/18 01:38:42;;;;;;;;;;;;;;;11.47;74.03;98280.44;5094378;28;19922;-37
2023/01/18 01:41:10;;;;;;;;;;;;;;;11.27;74.65;98277.47;5094601;28;19912;-36
2023/01/18 01:43:40;;;;;;;;;;;;;;;10.99;75.54;98273.06;5094236;28;19912;-36
2023/01/18 01:46:16;;;;;;;;;;;;;;;11.07;75.94;98272.66;5094174;28;20280;-37
2023/01/18 01:48:42;;;;;;;;;;;;;;;11.05;75.89;98256.09;5094004;28;19923;-36
2023/01/18 01:51:07;;;;;;;;;;;;;;;11.09;75.66;98243.91;5093891;28;19912;-35
2023/01/18 01:53:32;;;;;;;;;;;;;;;11.01;75.87;98250.47;5093598;28;20074;-36
2023/01/18 01:55:58;;;;;;;;;;;;;;;10.84;76.56;98250.44;5093979;28;19919;-36
2023/01/18 01:58:26;;;;;;;;;;;;;;;10.85;75.91;98254.75;5093807;28;19969;-36
2023/01/18 02:00:53;;;;;;;;;;;;;;;11.01;75.39;98268.28;5093807;28;19968;-37
2023/01/18 02:03:20;;;;;;;;;;;;;;;11.07;75.59;98276.09;5093884;28;19916;-37
2023/01/18 02:05:48;;;;;;;;;;;;;;;11.25;74.42;98275.06;5093491;28;19919;-35
2023/01/18 02:08:21;;;;;;;;;;;;;;;11.33;74.16;98268.53;5093333;28;19962;-36
2023/01/18 02:10:46;;;;;;;;;;;;;;;10.96;75.08;98261.81;5093547;28;20399;-36
2023/01/18 02:13:11;;;;;;;;;;;;;;;10.88;75.75;98259.56;5093217;28;19912;-37
2023/01/18 02:15:52;;;;;;;;;;;;;;;10.91;75.43;98272.41;5093300;28;19912;-36
2023/01/18 02:18:31;;;;;;;;;;;;;;;11.09;74.37;98266.00;5093391;28;19912;-37
2023/01/18 02:21:16;;;;;;;;;;;;;;;11.44;73.90;98270.28;5093290;28;19959;-37
2023/01/18 02:24:00;;;;;;;;;;;;;;;11.53;73.51;98271.44;5093644;28;19970;-37
2023/01/18 02:26:28;;;;;;;;;;;;;;;11.35;73.46;98269.88;5093434;28;19969;-37
2023/01/18 02:28:59;;;;;;;;;;;;;;;11.21;74.36;98265.13;5092775;28;19912;-37
2023/01/18 02:31:27;;;;;;;;;;;;;;;11.20;74.59;98269.66;5093313;28;19912;-37
2023/01/18 02:33:56;;;;;;;;;;;;;;;11.58;72.86;98284.06;5093346;28;20007;-37
2023/01/18 02:36:35;;;;;;;;;;;;;;;11.20;74.14;98269.66;5093358;28;19999;-37
2023/01/18 02:39:05;;;;;;;;;;;;;;;11.15;74.60;98270.38;5093090;28;19912;-36
2023/01/18 02:47:08;;;;;;;;;;;;;;;10.29;78.64;98240.44;5051122;28;19912;-36
2023/01/18 02:49:34;;;;;;;;;;;;;;;10.33;78.43;98241.59;5093269;28;19912;-36
2023/01/18 02:52:06;;;;;;;;;;;;;;;10.56;77.82;98273.38;5092703;28;19912;-36
2023/01/18 02:54:34;;;;;;;;;;;;;;;10.30;78.65;98295.22;5092865;28;19920;-36
2023/01/18 02:57:03;;;;;;;;;;;;;;;10.59;78.04;98303.25;5092757;28;20511;-35
2023/01/18 02:59:32;;;;;;;;;;;;;;;10.62;77.40;98281.47;5092483;28;20348;-37
2023/01/18 03:02:15;;;;;;;;;;;;;;;10.75;76.41;98292.59;5092316;28;20390;-36
2023/01/18 03:04:53;;;;;;;;;;;;;;;11.10;74.41;98291.59;5092514;28;19912;-35
2023/01/18 03:07:23;;;;;;;;;;;;;;;11.10;75.21;98278.28;5092675;28;19939;-36
2023/01/18 03:09:48;;;;;;;;;;;;;;;11.29;74.19;98270.88;5092795;28;19912;-36
2023/01/18 03:12:17;;;;;;;;;;;;;;;11.44;73.41;98286.25;5092364;28;19912;-36
2023/01/18 03:15:01;;;;;;;;;;;;;;;11.11;74.69;98271.91;5092673;28;20039;-36
2023/01/18 03:17:41;;;;;;;;;;;;;;;11.17;74.67;98291.44;5091029;28;20027;-36
2023/01/18 03:20:14;;;;;;;;;;;;;;;10.91;75.41;98283.03;5092077;28;19985;-36
2023/01/18 03:25:31;;;;;;;;;;;;;;;10.79;76.14;98282.28;5092054;28;19918;-36
2023/01/18 03:33:46;;;;;;;;;;;;;;;10.63;77.88;98262.59;5099606;28;19923;-36
2023/01/18 03:36:11;;;;;;;;;;;;;;;10.64;78.03;98264.25;5109371;28;20269;-36
2023/01/18 03:38:41;;;;;;;;;;;;;;;10.58;78.67;98270.50;5112408;28;19914;-36
2023/01/18 03:41:07;;;;;;;;;;;;;;;10.62;80.03;98268.97;5111576;28;20342;-36
2023/01/18 03:43:36;;;;;;;;;;;;;;;10.66;79.55;98264.81;5091500;28;19920;-36
2023/01/18 03:46:02;;;;;;;;;;;;;;;10.60;79.66;98272.91;5100950;28;20276;-36
2023/01/18 03:48:27;;;;;;;;;;;;;;;10.59;78.37;98282.75;5108549;28;19919;-37
2023/01/18 03:50:59;;;;;;;;;;;;;;;10.63;78.74;98281.22;5095991;28;19911;-39
2023/01/18 03:53:37;;;;;;;;;;;;;;;10.70;78.68;98297.03;5113436;28;19912;-38
2023/01/18 03:56:10;;;;;;;;;;;;;;;10.75;78.23;98281.97;5113268;28;19911;-41
2023/01/18 03:58:35;;;;;;;;;;;;;;;10.31;80.37;98270.28;5113120;28;19912;-40
2023/01/18 04:01:04;;;;;;;;;;;;;;;9.94;83.29;98267.94;5112939;28;19911;-37
2023/01/18 04:03:32;;;;;;;;;;;;;;;10.32;82.53;98288.66;5113278;28;19995;-37
2023/01/18 04:05:59;;;;;;;;;;;;;;;10.44;80.58;98290.47;5112299;28;20299;-37
2023/01/18 04:08:24;;;;;;;;;;;;;;;10.48;80.83;98281.75;5110681;28;19933;-36
2023/01/18 04:10:49;;;;;;;;;;;;;;;10.44;81.34;98277.97;5111880;28;19911;-36
2023/01/18 04:13:15;;;;;;;;;;;;;;;10.41;80.80;98273.13;5111749;28;20279;-37
2023/01/18 04:15:40;;;;;;;;;;;;;;;10.45;80.12;98286.75;5112021;28;19943;-35
2023/01/18 04:18:05;;;;;;;;;;;;;;;10.62;79.31;98279.59;5096005;28;20070;-36
2023/01/18 04:20:31;;;;;;;;;;;;;;;10.35;80.64;98284.72;5091077;28;19971;-36
2023/01/18 04:22:56;;;;;;;;;;;;;;;10.39;80.18;98283.19;5091195;28;20009;-41
2023/01/18 04:25:21;;;;;;;;;;;;;;;10.14;81.15;98291.44;5091304;28;20355;-37
2023/01/18 04:27:46;;;;;;;;;;;;;;;10.08;81.86;98308.34;5091365;28;19955;-37
2023/01/18 04:30:12;;;;;;;;;;;;;;;9.91;82.04;98300.28;5095486;28;20008;-37
2023/01/18 04:32:38;;;;;;;;;;;;;;;10.18;81.63;98306.72;5094048;28;19919;-37
2023/01/18 04:35:03;;;;;;;;;;;;;;;10.06;81.43;98321.88;5094794;28;19969;-37
2023/01/18 04:37:29;;;;;;;;;;;;;;;10.31;80.95;98318.94;5092839;28;19916;-37
2023/01/18 04:39:54;;;;;;;;;;;;;;;10.19;81.37;98294.22;5094694;28;19913;-35
2023/01/18 04:42:19;;;;;;;;;;;;;;;9.85;82.61;98301.25;5094278;28;19912;-35
2023/01/18 04:44:44;;;;;;;;;;;;;;;10.02;82.17;98314.63;5093459;28;19912;-37
2023/01/18 04:47:10;;;;;;;;;;;;;;;9.98;82.37;98300.97;5094457;28;19923;-37
2023/01/18 04:49:35;;;;;;;;;;;;;;;9.91;82.30;98309.06;5094259;28;19912;-37
2023/01/18 04:52:00;;;;;;;;;;;;;;;10.08;82.23;98317.13;5093415;28;20225;-37
2023/01/18 04:54:26;;;;;;;;;;;;;;;10.07;81.92;98312.88;5093456;28;19936;-34
2023/01/18 04:56:52;;;;;;;;;;;;;;;10.26;81.13;98313.50;5093689;28;20034;-36
2023/01/18 04:59:17;;;;;;;;;;;;;;;10.29;81.43;98301.59;5094108;28;19912;-36
2023/01/18 05:01:43;;;;;;;;;;;;;;;10.62;86.67;98290.25;5093680;28;20324;-36
2023/01/18 05:04:08;;;;;;;;;;;;;;;10.34;84.36;98283.09;5090241;28;19918;-36
2023/01/18 05:06:33;;;;;;;;;;;;;;;10.17;83.06;98278.50;5084716;28;20364;-37
2023/01/18 05:08:58;;;;;;;;;;;;;;;11.44;90.83;98294.25;5094686;28;19912;-37
2023/01/18 05:11:24;;;;;;;;;;;;;;;12.47;83.55;98316.88;5094782;28;19916;-37
2023/01/18 05:13:49;;;;;;;;;;;;;;;12.73;75.08;98339.31;5094639;28;19923;-37
2023/01/18 05:16:15;;;;;;;;;;;;;;;12.78;72.75;98336.72;5093018;28;19919;-36
2023/01/18 05:18:41;;;;;;;;;;;;;;;12.89;73.57;98346.44;5093511;28;20387;-36
2023/01/18 05:21:07;;;;;;;;;;;;;;;13.69;70.30;98346.56;5092690;28;19972;-37
2023/01/18 05:23:32;;;;;;;;;;;;;;;12.36;70.52;98320.53;5093687;28;19968;-37
2023/01/18 05:25:58;;;;;;;;;;;;;;;11.40;74.90;98338.38;5093872;28;19912;-37
2023/01/18 05:28:24;;;;;;;;;;;;;;;11.12;77.36;98333.97;5093626;28;19931;-37
2023/01/18 05:30:50;;;;;;;;;;;;;;;11.85;77.50;98336.66;5093257;28;19919;-36
2023/01/18 05:33:16;;;;;;;;;;;;;;;12.66;70.46;98330.69;5093651;28;19912;-36
2023/01/18 05:35:46;;;;;;;;;;;;;;;12.66;71.98;98306.66;5093409;28;20375;-37
2023/01/18 05:38:11;;;;;;;;;;;;;;;12.67;69.35;98318.97;5093880;28;19934;-37
2023/01/18 05:40:36;;;;;;;;;;;;;;;12.52;68.97;98306.28;5092808;28;20368;-37
2023/01/18 05:43:02;;;;;;;;;;;;;;;12.34;69.83;98331.44;5093589;28;19998;-37
2023/01/18 05:45:27;;;;;;;;;;;;;;;12.39;69.79;98342.16;5093545;28;20402;-37
2023/01/18 05:47:53;;;;;;;;;;;;;;;11.78;71.78;98326.16;5091338;28;20021;-37
2023/01/18 05:50:19;;;;;;;;;;;;;;;11.43;73.30;98329.13;5091467;28;19919;-37
2023/01/18 05:52:44;;;;;;;;;;;;;;;11.79;71.79;98327.78;5090724;28;19912;-37
2023/01/18 05:55:09;;;;;;;;;;;;;;;12.09;70.65;98332.72;5090807;28;19951;-36
2023/01/18 05:57:35;;;;;;;;;;;;;;;12.12;69.89;98345.56;5090934;28;19947;-37
2023/01/18 06:00:03;;;;;;;;;;;;;;;12.22;69.54;98349.41;5090965;28;19948;-37
2023/01/18 06:02:29;;;;;;;;;;;;;;;11.96;70.72;98349.09;5092158;28;20299;-37
2023/01/18 06:04:54;;;;;;;;;;;;;;;11.86;71.01;98364.91;5093017;28;19912;-37
2023/01/18 06:07:19;;;;;;;;;;;;;;;11.60;72.18;98351.22;5092840;28;19966;-37
2023/01/18 06:09:45;;;;;;;;;;;;;;;11.60;72.26;98347.75;5092677;28;19912;-38
2023/01/18 06:12:10;;;;;;;;;;;;;;;11.18;73.46;98340.19;5093144;28;19916;-37
2023/01/18 06:14:35;;;;;;;;;;;;;;;11.23;74.01;98351.72;5092679;28;20316;-37
2023/01/18 06:17:00;;;;;;;;;;;;;;;10.95;75.49;98365.88;5093035;28;19923;-37
2023/01/18 06:19:26;;;;;;;;;;;;;;;11.36;74.26;98371.88;5092510;28;20375;-37
2023/01/18 06:21:52;;;;;;;;;;;;;;;11.55;73.48;98359.94;5092669;28;19918;-37
2023/01/18 06:24:17;;;;;;;;;;;;;;;12.10;72.40;98373.53;5092809;28;19919;-36
2023/01/18 06:26:42;;;;;;;;;;;;;;;12.48;70.78;98378.00;5092913;28;19919;-37
2023/01/18 06:29:07;;;;;;;;;;;;;;;12.88;69.42;98384.84;5093101;28;19912;-37
2023/01/18 06:31:33;;;;;;;;;;;;;;;13.16;68.01;98395.56;5092705;28;19919;-37
2023/01/18 06:33:58;;;;;;;;;;;;;;;12.97;67.48;98374.53;5092831;28;19916;-37
2023/01/18 06:36:23;;;;;;;;;;;;;;;12.38;69.43;98375.22;5092534;28;20389;-36
2023/01/18 06:38:48;;;;;;;;;;;;;;;12.49;69.49;98405.50;5092656;28;20007;-36
2023/01/18 06:41:14;;;;;;;;;;;;;;;12.79;68.79;98356.19;5091730;28;19912;-38
2023/01/18 06:43:40;;;;;;;;;;;;;;;12.57;68.16;98374.91;5092463;28;19912;-37
2023/01/18 06:46:07;;;;;;;;;;;;;;;12.95;67.50;98389.22;5092902;28;19912;-37
2023/01/18 06:48:32;;;;;;;;;;;;;;;12.94;67.18;98383.03;5092397;28;20002;-37
2023/01/18 06:50:57;;;;;;;;;;;;;;;13.15;66.63;98392.06;5092582;28;19951;-37
2023/01/18 06:53:23;;;;;;;;;;;;;;;13.00;66.91;98391.91;5092310;28;19941;-37
2023/01/18 06:55:55;;;;;;;;;;;;;;;12.90;67.07;98390.75;5092326;28;19912;-37
2023/01/18 06:58:21;;;;;;;;;;;;;;;13.42;66.94;98396.59;5093202;28;19912;-36
2023/01/18 07:00:46;;;;;;;;;;;;;;;14.01;65.40;98376.94;5093325;28;20006;-37
2023/01/18 07:03:12;;;;;;;;;;;;;;;14.13;63.63;98379.44;5092368;28;19923;-37
2023/01/18 07:05:37;;;;;;;;;;;;;;;14.41;63.33;98384.41;5092514;28;20391;-37
2023/01/18 07:08:02;;;;;;;;;;;;;;;14.82;61.40;98402.50;5092074;28;19916;-37
2023/01/18 07:10:28;;;;;;;;;;;;;;;15.15;60.26;98403.88;5092140;28;20303;-36
2023/01/18 07:12:53;;;;;;;;;;;;;;;15.56;58.48;98398.56;5091886;28;19912;-37
2023/01/18 07:15:18;;;;;;;;;;;;;;;15.77;58.73;98420.03;5091931;28;20363;-37
2023/01/18 07:17:44;;;;;;;;;;;;;;;15.83;57.47;98417.06;5091671;28;19916;-37
2023/01/18 07:20:10;;;;;;;;;;;;;;;15.57;58.24;98427.00;5091558;28;19935;-36
2023/01/18 07:22:35;;;;;;;;;;;;;;;15.58;58.40;98422.44;5092128;28;19916;-37
2023/01/18 07:25:00;;;;;;;;;;;;;;;15.65;58.34;98428.34;5092106;28;19948;-38
2023/01/18 07:27:25;;;;;;;;;;;;;;;15.46;57.85;98425.38;5091892;28;20321;-37
2023/01/18 07:29:51;;;;;;;;;;;;;;;15.36;58.42;98428.84;5091974;28;19912;-37
2023/01/18 07:32:16;;;;;;;;;;;;;;;15.39;58.30;98427.50;5091896;28;19912;-37
2023/01/18 07:34:41;;;;;;;;;;;;;;;14.80;59.11;98409.97;5091938;28;20003;-36
2023/01/18 07:37:06;;;;;;;;;;;;;;;14.54;60.51;98419.75;5091500;28;19912;-35
2023/01/18 07:39:32;;;;;;;;;;;;;;;14.78;60.21;98401.41;5091306;28;20023;-37
2023/01/18 07:41:57;;;;;;;;;;;;;;;14.51;60.35;98414.91;5091364;28;20356;-37
2023/01/18 07:44:22;;;;;;;;;;;;;;;14.16;61.11;98421.72;5091259;28;19923;-37
2023/01/18 07:46:48;;;;;;;;;;;;;;;13.89;62.71;98427.97;5091824;28;19912;-37
2023/01/18 07:49:14;;;;;;;;;;;;;;;13.93;63.10;98445.09;5091534;28;19919;-36
2023/01/18 07:51:40;;;;;;;;;;;;;;;14.33;62.21;98440.28;5091144;28;19913;-37
2023/01/18 07:54:06;;;;;;;;;;;;;;;14.74;61.00;98438.63;5091218;28;19916;-38
2023/01/18 07:56:31;;;;;;;;;;;;;;;14.64;60.79;98452.78;5091147;28;19912;-37
2023/01/18 07:58:56;;;;;;;;;;;;;;;14.57;60.82;98435.34;5091247;28;19935;-37
2023/01/18 08:01:22;;;;;;;;;;;;;;;14.64;60.68;98455.44;5091403;28;19912;-37
2023/01/18 08:03:48;;;;;;;;;;;;;;;14.76;60.30;98454.44;5090513;28;19912;-37
2023/01/18 08:06:15;;;;;;;;;;;;;;;15.05;60.35;98468.19;5091346;28;19919;-37
2023/01/18 08:08:41;;;;;;;;;;;;;;;15.36;58.94;98473.59;5091275;28;19944;-36
2023/01/18 08:11:07;;;;;;;;;;;;;;;15.48;58.74;98463.44;5090979;28;20338;-37
2023/01/18 08:13:32;;;;;;;;;;;;;;;15.66;58.36;98478.19;5090900;28;19924;-37
2023/01/18 08:15:59;;;;;;;;;;;;;;;15.79;58.41;98479.59;5091178;28;19912;-42
2023/01/18 08:18:24;;;;;;;;;;;;;;;16.26;56.91;98489.22;5091353;28;19955;-42
2023/01/18 08:20:49;;;;;;;;;;;;;;;16.32;56.31;98482.75;5091301;28;19955;-42
2023/01/18 08:23:15;;;;;;;;;;;;;;;16.18;56.11;98470.97;5090972;28;20463;-42
2023/01/18 08:25:41;;;;;;;;;;;;;;;16.29;56.58;98477.13;5091114;28;19946;-43
2023/01/18 08:28:06;;;;;;;;;;;;;;;15.80;57.90;98489.22;5090851;28;19999;-43
2023/01/18 08:30:33;;;;;;;;;;;;;;;16.29;56.44;98493.22;5091108;28;19916;-43
2023/01/18 08:32:59;;;;;;;;;;;;;;;16.34;56.35;98474.44;5091118;28;20311;-43
2023/01/18 08:35:26;;;;;;;;;;;;;;;16.37;56.51;98474.69;5091120;28;19916;-42
2023/01/18 08:37:51;;;;;;;;;;;;;;;16.52;57.00;98481.09;5091308;28;19912;-44
2023/01/18 08:40:17;;;;;;;;;;;;;;;17.00;56.09;98474.22;5091173;28;19912;-43
2023/01/18 08:42:43;;;;;;;;;;;;;;;17.15;56.16;98477.91;5091074;28;20288;-43
2023/01/18 08:45:08;;;;;;;;;;;;;;;17.18;57.24;98486.22;5091024;28;20447;-46
2023/01/18 08:47:34;;;;;;;;;;;;;;;17.89;55.93;98481.44;5091368;28;19919;-43
2023/01/18 08:50:00;;;;;;;;;;;;;;;18.35;54.33;98486.44;5090713;28;20296;-43
2023/01/18 08:52:25;;;;;;;;;;;;;;;18.81;52.06;98489.72;5090771;28;20011;-44
2023/01/18 08:54:51;;;;;;;;;;;;;;;18.86;51.84;98493.16;5090722;28;19920;-43
2023/01/18 08:57:16;;;;;;;;;;;;;;;19.73;50.64;98494.69;5090728;28;19912;-42
2023/01/18 08:59:41;;;;;;;;;;;;;;;20.01;48.16;98473.19;5090576;28;19923;-43
2023/01/18 09:02:08;;;;;;;;;;;;;;;20.20;47.75;98472.31;5090807;28;20416;-43
2023/01/18 09:04:34;;;;;;;;;;;;;;;19.22;49.07;98473.81;5090789;28;20011;-43
2023/01/18 09:07:00;;;;;;;;;;;;;;;19.56;51.42;98480.91;5090596;28;19955;-43
2023/01/18 09:09:25;;;;;;;;;;;;;;;19.92;49.28;98491.94;5090436;28;19947;-42
2023/01/18 09:11:51;;;;;;;;;;;;;;;20.48;48.01;98486.66;5090445;28;20300;-42
2023/01/18 09:14:16;;;;;;;;;;;;;;;21.11;48.23;98493.25;5090647;28;19916;-42
2023/01/18 09:16:41;;;;;;;;;;;;;;;21.32;45.71;98493.63;5094291;28;19912;-42
2023/01/18 09:19:07;;;;;;;;;;;;;;;20.73;46.69;98493.50;5094096;28;19998;-42
2023/01/18 09:21:33;;;;;;;;;;;;;;;20.78;47.14;98500.72;5094462;28;19916;-42
2023/01/18 09:23:58;;;;;;;;;;;;;;;20.95;45.86;98494.69;5094180;28;19912;-42
2023/01/18 09:26:24;;;;;;;;;;;;;;;21.20;45.49;98498.75;5094071;28;19919;-42
2023/01/18 09:28:53;;;;;;;;;;;;;;;20.92;46.18;98496.09;5094159;28;19912;-42
2023/01/18 09:31:19;;;;;;;;;;;;;;;21.34;45.07;98504.13;5094659;28;19914;-42
2023/01/18 09:33:44;;;;;;;;;;;;;;;22.39;42.53;98484.03;5094426;28;19916;-43
2023/01/18 09:36:11;;;;;;;;;;;;;;;21.30;43.84;98482.31;5094300;28;19991;-44
2023/01/18 09:38:37;;;;;;;;;;;;;;;21.02;44.50;98479.66;5094432;28;19912;-43
2023/01/18 09:41:05;;;;;;;;;;;;;;;21.89;44.66;98484.22;5094091;28;19912;-40
2023/01/18 09:43:38;;;;;;;;;;;;;;;22.09;41.35;98472.88;5093973;28;19912;-42
2023/01/18 09:46:03;;;;;;;;;;;;;;;21.99;40.99;98465.81;5094169;28;19916;-41
2023/01/18 09:48:36;;;;;;;;;;;;;;;21.85;40.20;98470.50;5094007;28;19912;-41
2023/01/18 09:51:19;;;;;;;;;;;;;;;21.44;40.78;98483.09;5093597;28;20086;-42
2023/01/18 09:54:03;;;;;;;;;;;;;;;21.26;42.55;98474.00;5093399;28;19916;-42
2023/01/18 09:56:37;;;;;;;;;;;;;;;22.24;40.38;98471.69;5093275;28;19919;-42
2023/01/18 09:59:11;;;;;;;;;;;;;;;22.81;37.63;98463.63;5093641;28;19912;-40
2023/01/18 10:01:37;;;;;;;;;;;;;;;22.17;39.08;98482.97;5092997;28;19912;-41
2023/01/18 10:04:17;;;;;;;;;;;;;;;22.44;39.47;98489.34;5093389;28;20006;-42
2023/01/18 10:06:46;;;;;;;;;;;;;;;22.40;38.62;98491.88;5093186;28;19916;-41
2023/01/18 10:09:14;;;;;;;;;;;;;;;22.16;39.12;98497.63;5092953;28;19919;-42
2023/01/18 10:11:54;;;;;;;;;;;;;;;22.43;39.03;98488.53;5093311;28;19926;-41
2023/01/18 10:14:38;;;;;;;;;;;;;;;22.52;36.11;98466.09;5093190;28;20003;-43
2023/01/18 10:17:07;;;;;;;;;;;;;;;22.28;35.95;98471.91;5093237;28;19973;-43
2023/01/18 10:19:32;;;;;;;;;;;;;;;22.48;36.87;98482.16;5092547;28;20327;-42
2023/01/18 10:22:01;;;;;;;;;;;;;;;23.64;35.72;98478.25;5093146;28;19912;-41
2023/01/18 10:24:29;;;;;;;;;;;;;;;23.54;34.97;98476.66;5093031;28;19912;-42
2023/01/18 10:27:09;;;;;;;;;;;;;;;23.29;35.88;98478.25;5092217;28;20441;-42
2023/01/18 10:29:53;;;;;;;;;;;;;;;23.57;34.09;98486.06;5092849;28;19916;-41
2023/01/18 10:32:20;;;;;;;;;;;;;;;23.45;34.40;98483.22;5092938;28;19958;-42
2023/01/18 10:34:48;;;;;;;;;;;;;;;23.45;34.05;98486.72;5092836;28;19923;-42
2023/01/18 10:37:25;;;;;;;;;;;;;;;24.39;34.45;98486.13;5092766;28;19923;-43
2023/01/18 10:39:51;;;;;;;;;;;;;;;24.60;32.28;98483.53;5092780;28;19912;-42
2023/01/18 10:42:19;;;;;;;;;;;;;;;24.42;32.48;98492.84;5092434;28;19919;-43
2023/01/18 10:44:44;;;;;;;;;;;;;;;25.25;31.79;98500.47;5092766;28;19912;-43
2023/01/18 10:47:10;;;;;;;;;;;;;;;24.20;32.18;98481.88;5092776;28;20307;-43
2023/01/18 10:49:41;;;;;;;;;;;;;;;24.27;32.49;98486.00;5092505;28;20151;-42
2023/01/18 10:52:15;;;;;;;;;;;;;;;24.75;32.54;98491.13;5092296;28;19919;-43
2023/01/18 10:54:47;;;;;;;;;;;;;;;24.35;31.76;98496.03;5092208;28;20388;-41
2023/01/18 10:57:18;;;;;;;;;;;;;;;23.49;32.92;98486.88;5092383;28;19966;-41
2023/01/18 10:59:43;;;;;;;;;;;;;;;23.86;33.06;98485.47;5091943;28;20026;-44
2023/01/18 11:02:29;;;;;;;;;;;;;;;24.97;30.66;98492.75;5092117;28;20002;-41
2023/01/18 11:04:57;;;;;;;;;;;;;;;24.02;31.16;98490.38;5092192;28;20005;-41
2023/01/18 11:07:24;;;;;;;;;;;;;;;24.05;31.77;98500.63;5092467;28;20395;-41
2023/01/18 11:09:50;;;;;;;;;;;;;;;24.39;31.42;98497.00;5092085;28;19912;-44
2023/01/18 11:12:37;;;;;;;;;;;;;;;23.98;31.25;98496.47;5091604;28;19941;-42
2023/01/18 11:15:14;;;;;;;;;;;;;;;23.35;32.34;98508.75;5091773;28;20284;-42
2023/01/18 11:17:41;;;;;;;;;;;;;;;23.48;31.58;98505.09;5091308;28;19923;-42
2023/01/18 11:20:14;;;;;;;;;;;;;;;22.85;32.63;98501.78;5091441;28;19972;-41
2023/01/18 11:22:51;;;;;;;;;;;;;;;22.84;32.83;98502.88;5091354;28;20276;-40
2023/01/18 11:25:17;;;;;;;;;;;;;;;23.03;32.61;98487.16;5091653;28;20124;-41
2023/01/18 11:27:42;;;;;;;;;;;;;;;23.21;32.84;98484.50;5091734;28;20391;-41
2023/01/18 11:30:21;;;;;;;;;;;;;;;22.24;34.24;98488.75;5091658;28;19927;-41
2023/01/18 11:32:46;;;;;;;;;;;;;;;22.94;32.67;98489.03;5091632;28;20423;-42
2023/01/18 11:35:41;;;;;;;;;;;;;;;22.58;33.13;98483.81;5091893;28;19966;-43
2023/01/18 11:38:16;;;;;;;;;;;;;;;22.37;33.84;98487.09;5081823;28;19912;-43
2023/01/18 11:40:42;;;;;;;;;;;;;;;22.15;34.11;98496.00;5091461;28;19998;-41
2023/01/18 11:43:21;;;;;;;;;;;;;;;22.63;33.48;98498.00;5091477;28;19966;-42
2023/01/18 11:45:50;;;;;;;;;;;;;;;21.60;35.14;98488.16;5091241;28;19944;-42
2023/01/18 11:48:29;;;;;;;;;;;;;;;22.19;34.61;98485.34;5091163;28;19918;-42
2023/01/18 11:51:05;;;;;;;;;;;;;;;22.50;33.78;98471.81;5091342;28;19919;-43
2023/01/18 11:53:42;;;;;;;;;;;;;;;21.94;34.53;98495.72;5091213;28;20040;-41
2023/01/18 11:56:07;;;;;;;;;;;;;;;22.25;33.90;98497.69;5091511;28;19943;-41
2023/01/18 11:58:34;;;;;;;;;;;;;;;22.38;33.95;98496.00;5091446;28;20268;-43
2023/01/18 12:01:20;;;;;;;;;;;;;;;22.16;34.26;98511.19;5091474;28;19920;-41
2023/01/18 12:03:48;;;;;;;;;;;;;;;21.85;34.82;98506.50;5091282;28;19912;-42
2023/01/18 12:06:37;;;;;;;;;;;;;;;22.42;33.81;98503.19;5091170;28;20372;-43
2023/01/18 12:09:16;;;;;;;;;;;;;;;22.18;33.55;98511.66;5071958;28;20383;-41
2023/01/18 12:12:00;;;;;;;;;;;;;;;22.05;34.49;98507.91;5091540;28;19919;-41
2023/01/18 12:14:48;;;;;;;;;;;;;;;22.78;33.32;98510.34;5091355;28;19973;-42
2023/01/18 12:17:31;;;;;;;;;;;;;;;22.74;32.74;98517.53;5091259;28;19989;-42
2023/01/18 12:20:02;;;;;;;;;;;;;;;22.50;34.23;98514.38;5090449;28;19931;-42
2023/01/18 12:22:30;;;;;;;;;;;;;;;23.02;32.98;98526.22;5090941;28;20011;-42
2023/01/18 12:24:58;;;;;;;;;;;;;;;23.05;32.76;98530.25;5090784;28;20303;-42
2023/01/18 12:27:32;;;;;;;;;;;;;;;22.89;33.03;98535.28;5091092;28;19943;-42
2023/01/18 12:30:21;;;;;;;;;;;;;;;23.65;32.36;98547.75;5090871;28;19920;-42
2023/01/18 12:32:56;;;;;;;;;;;;;;;23.33;32.02;98549.78;5085355;28;19935;-42
2023/01/18 12:35:33;;;;;;;;;;;;;;;22.89;32.95;98556.97;5089565;28;20414;-41
2023/01/18 12:38:05;;;;;;;;;;;;;;;23.30;32.82;98558.53;5090855;28;19912;-41
2023/01/18 12:40:35;;;;;;;;;;;;;;;23.07;32.50;98565.22;5090521;28;19912;-42
2023/01/18 12:43:06;;;;;;;;;;;;;;;22.61;32.98;98570.72;5090590;28;19912;-42
2023/01/18 12:45:32;;;;;;;;;;;;;;;23.37;32.85;98574.38;5090966;28;19912;-42
2023/01/18 12:47:57;;;;;;;;;;;;;;;23.21;32.12;98579.47;5090994;28;20002;-41
2023/01/18 12:50:24;;;;;;;;;;;;;;;22.71;32.72;98585.13;5093372;28;19928;-42
2023/01/18 12:53:02;;;;;;;;;;;;;;;22.94;32.43;98583.97;5094852;28;20385;-42
2023/01/18 12:55:30;;;;;;;;;;;;;;;22.68;32.54;98592.00;5094633;28;19916;-42
2023/01/18 12:57:57;;;;;;;;;;;;;;;22.84;32.47;98595.09;5094944;28;19916;-41
2023/01/18 13:00:39;;;;;;;;;;;;;;;23.27;32.26;98590.97;5094476;28;19916;-43
2023/01/18 13:03:13;;;;;;;;;;;;;;;23.59;31.40;98593.25;5094613;28;19961;-42
2023/01/18 13:05:54;;;;;;;;;;;;;;;22.53;32.70;98595.09;5094467;28;19912;-42
2023/01/18 13:08:31;;;;;;;;;;;;;;;22.80;32.88;98594.13;5094568;28;19912;-42
2023/01/18 13:11:02;;;;;;;;;;;;;;;22.11;34.19;98595.28;5094725;28;19912;-42
2023/01/18 13:13:29;;;;;;;;;;;;;;;21.96;33.85;98595.63;5094266;28;20388;-42
2023/01/18 13:16:10;;;;;;;;;;;;;;;22.01;33.79;98582.78;5094307;28;20114;-42
2023/01/18 13:18:41;;;;;;;;;;;;;;;21.96;33.66;98587.50;5093803;28;19967;-42
2023/01/18 13:21:24;;;;;;;;;;;;;;;21.60;34.42;98591.81;5094137;28;20387;-42
2023/01/18 13:24:09;;;;;;;;;;;;;;;22.16;33.99;98602.47;5094188;28;19916;-42
2023/01/18 13:26:35;;;;;;;;;;;;;;;22.01;33.65;98603.66;5093132;28;19954;-42
2023/01/18 13:29:05;;;;;;;;;;;;;;;21.73;34.34;98600.22;5094069;28;19912;-42